Beale Air Force Base
KBAB : now visible

Airfield :











YOU CAN JOIN US ON...

 
LOGIN :

Register | Disclaimer

   EN    FR    IT 

 









Legend :    VFR   Marginal VFR   IFR   Intensive IFR   Very Intensive IFR
Visi :
Ceiling :
>= 8 km
>= 3000ft
5 to 8 km
1000 to 3000 ft
1500m to 5 km
500 to 1000 ft
800 to 1500m
200 to 500 ft
< 800m
< 200 ft
Symbols :   Thunderstorms  Fog  Heavy snow  Heavy precipitations  Wind > 20 kt






- Airport Elevation : 113 ft


KBAB - Beale Air Force Base

CURRENT METAR :
  • 240358Z 00000KT 10SM BKN095 OVC130 10/09 A3013 RMK AO2A SLP206 T01020091 $

EXPIRED METARs :
  • 240258Z AUTO 00000KT 10SM SCT160 11/09 A3012 RMK AO2 SLPNO T01100093 56009 $
  • 240158Z AUTO 00000KT 10SM SCT100 BKN120 BKN160 12/10 A3012 RMK AO2 SLP203 T01160095 $

TAF TAF KBAB
Valid from the 24 at 03:00 until the 25 at 09:00 UTC


240301Z 2403/2509 VRB06KT 9999 BKN100 QNH3011INS
BECMG 2405/2406 VRB06KT 8000 -SHRA BKN060 QNH3013INS
BECMG 2411/2412 VRB06KT 4800 BR SCT060 QNH3015INS
BECMG 2412/2413 VRB06KT 0800 FG VV002 QNH3015INS
BECMG 2418/2419 VRB06KT 9999 NSW BKN006 QNH3014INS TX14/2421Z TN06/2412Z



MET'MAP, your aeronautical weather chart ! - Copyright ORBIFLY December 2007 - Disclaimer

ORBIFLY MET'MAP TEAM :

Programming & Development : Alexandra Zaïnal
Concept & original design : Baudouin d'Aumeries
Assistance for programming : Marc-Olivier Méhu
Technical & hardware support : Manuel Goepfert

Contact : metmap@orbifly.com




SOURCES & CREDITS :

   NOAA       Earth
Advisory